createdAt,value
2018-12-14T00:01:23.240Z,4.50
2018-12-14T00:03:49.479Z,4.40
2018-12-14T00:06:15.743Z,4.60
2018-12-14T00:08:41.996Z,4.70
2018-12-14T00:11:08.599Z,4.70
2018-12-14T00:13:35.582Z,4.60
2018-12-14T00:16:02.652Z,4.60
2018-12-14T00:18:28.924Z,4.60
2018-12-14T00:20:55.152Z,4.60
2018-12-14T00:23:21.431Z,4.70
2018-12-14T00:25:48.471Z,4.50
2018-12-14T00:28:14.715Z,4.50
2018-12-14T00:30:41.874Z,4.50
2018-12-14T00:33:08.133Z,4.50
2018-12-14T00:35:34.413Z,4.50
2018-12-14T00:38:00.643Z,4.50
2018-12-14T00:40:26.911Z,4.50
2018-12-14T00:42:53.898Z,4.60
2018-12-14T00:45:20.157Z,4.50
2018-12-14T00:47:46.437Z,4.60
2018-12-14T00:50:12.689Z,4.60
2018-12-14T00:52:39.291Z,4.60
2018-12-14T00:55:05.552Z,4.60
2018-12-14T00:57:31.784Z,4.70
2018-12-14T00:59:58.028Z,4.60
2018-12-14T01:02:28.232Z,4.50
2018-12-14T01:04:54.498Z,4.50
2018-12-14T01:07:21.474Z,4.50
2018-12-14T01:09:48.084Z,4.50
2018-12-14T01:12:15.068Z,4.50
2018-12-14T01:14:41.306Z,4.50
2018-12-14T01:17:07.582Z,4.50
2018-12-14T01:19:34.933Z,4.60
2018-12-14T01:22:01.948Z,4.70
2018-12-14T01:24:28.181Z,4.70
2018-12-14T01:26:54.487Z,4.70
2018-12-14T01:29:20.748Z,4.70
2018-12-14T01:31:47.097Z,4.80
2018-12-14T01:34:14.084Z,4.70
2018-12-14T01:36:40.371Z,4.60
2018-12-14T01:39:06.633Z,4.60
2018-12-14T01:41:32.885Z,4.70
2018-12-14T01:43:59.141Z,4.60
2018-12-14T01:46:25.792Z,4.50
2018-12-14T01:48:52.789Z,4.80
2018-12-14T01:51:19.065Z,4.80
2018-12-14T01:53:45.320Z,4.70
2018-12-14T01:56:11.573Z,4.70
2018-12-14T01:58:37.856Z,4.60
2018-12-14T02:01:04.848Z,4.70
2018-12-14T02:03:31.309Z,4.60
2018-12-14T02:05:57.558Z,4.60
2018-12-14T02:08:24.601Z,4.50
2018-12-14T02:10:51.574Z,4.50
2018-12-14T02:13:17.842Z,4.60
2018-12-14T02:15:44.103Z,4.60
2018-12-14T02:18:10.351Z,4.70
2018-12-14T02:20:37.680Z,4.70
2018-12-14T02:23:04.665Z,4.60
2018-12-14T02:25:30.939Z,4.60
2018-12-14T02:27:57.933Z,4.60
2018-12-14T02:30:45.277Z,4.60
2018-12-14T02:33:11.572Z,4.70
2018-12-14T02:35:37.848Z,4.70
2018-12-14T02:38:04.137Z,4.70
2018-12-14T02:40:30.492Z,4.60
2018-12-14T02:42:56.728Z,4.50
2018-12-14T02:45:22.981Z,4.50
2018-12-14T02:47:49.306Z,4.50
2018-12-14T02:50:16.325Z,4.60
2018-12-14T02:52:42.630Z,4.60
2018-12-14T02:55:08.893Z,4.50
2018-12-14T02:57:35.170Z,4.50
2018-12-14T03:00:01.480Z,4.50
2018-12-14T03:02:28.504Z,4.60
2018-12-14T03:04:54.798Z,4.80
2018-12-14T03:07:21.062Z,4.50
2018-12-14T03:09:47.325Z,4.50
2018-12-14T03:12:13.574Z,4.50
2018-12-14T03:14:39.906Z,4.40
2018-12-14T03:17:06.893Z,4.50
2018-12-14T03:19:33.393Z,4.40
2018-12-14T03:21:59.658Z,4.50
2018-12-14T03:24:25.914Z,4.60
2018-12-14T03:26:52.183Z,4.50
2018-12-14T03:29:18.457Z,4.50
2018-12-14T03:31:45.598Z,4.40
2018-12-14T03:34:11.836Z,4.40
2018-12-14T03:36:38.973Z,4.50
2018-12-14T03:39:05.515Z,4.50
2018-12-14T03:41:32.485Z,4.50
2018-12-14T03:43:58.738Z,4.50
2018-12-14T03:46:25.338Z,4.70
2018-12-14T03:48:51.572Z,4.50
2018-12-14T03:51:17.847Z,4.50
2018-12-14T03:53:44.085Z,4.50
2018-12-14T03:56:10.353Z,4.50
2018-12-14T03:58:36.581Z,4.60
2018-12-14T04:01:02.976Z,4.80
2018-12-14T04:03:29.978Z,4.80
2018-12-14T04:05:56.233Z,4.80
2018-12-14T04:08:22.496Z,4.80
2018-12-14T04:10:48.825Z,4.90
2018-12-14T04:13:15.108Z,4.80
2018-12-14T04:15:41.391Z,4.80
2018-12-14T04:18:07.695Z,4.70
2018-12-14T04:20:33.963Z,4.70
2018-12-14T04:23:00.201Z,4.60
2018-12-14T04:25:26.480Z,4.50
2018-12-14T04:27:52.744Z,4.60
2018-12-14T04:30:19.060Z,4.60
2018-12-14T04:32:46.049Z,4.80
2018-12-14T04:35:12.309Z,4.80
2018-12-14T04:37:38.599Z,5.00
2018-12-14T04:40:04.875Z,4.90
2018-12-14T04:42:31.128Z,4.80
2018-12-14T04:44:57.645Z,4.70
2018-12-14T04:47:24.660Z,4.80
2018-12-14T04:49:50.916Z,4.80
2018-12-14T04:52:17.905Z,4.70
2018-12-14T04:54:44.167Z,4.70
2018-12-14T04:57:10.393Z,4.70
2018-12-14T04:59:36.632Z,4.70
2018-12-14T05:02:03.643Z,4.70
2018-12-14T05:04:29.891Z,4.50
2018-12-14T05:06:56.363Z,4.80
2018-12-14T05:09:22.589Z,4.70
2018-12-14T05:11:49.573Z,4.60
2018-12-14T05:14:16.114Z,4.60
2018-12-14T05:16:42.352Z,4.70
2018-12-14T05:19:08.572Z,4.80
2018-12-14T05:21:35.148Z,4.80
2018-12-14T05:24:02.145Z,4.80
2018-12-14T05:26:29.039Z,4.70
2018-12-14T05:28:55.436Z,4.80
2018-12-14T05:31:21.825Z,4.80
2018-12-14T05:33:48.347Z,4.80
2018-12-14T05:36:14.649Z,4.70
2018-12-14T05:38:41.707Z,4.70
2018-12-14T05:41:08.988Z,4.70
2018-12-14T05:43:35.220Z,4.90
2018-12-14T05:46:01.454Z,4.70
2018-12-14T05:48:27.705Z,4.70
2018-12-14T05:50:53.926Z,4.60
2018-12-14T05:53:20.192Z,4.70
2018-12-14T05:55:47.560Z,4.80
2018-12-14T05:58:13.877Z,4.80
2018-12-14T06:00:40.125Z,4.90
2018-12-14T06:03:06.679Z,4.70
2018-12-14T06:05:32.933Z,4.60
2018-12-14T06:07:59.173Z,4.70
2018-12-14T06:10:25.440Z,4.60
2018-12-14T06:12:52.404Z,4.60
2018-12-14T06:15:18.664Z,4.60
2018-12-14T06:17:45.245Z,4.70
2018-12-14T06:20:12.249Z,4.60
2018-12-14T06:22:38.514Z,4.60
2018-12-14T06:25:04.844Z,4.60
2018-12-14T06:27:31.076Z,4.60
2018-12-14T06:29:58.096Z,4.60
2018-12-14T06:32:24.342Z,4.60
2018-12-14T06:34:51.400Z,4.70
2018-12-14T06:37:18.460Z,4.60
2018-12-14T06:39:44.727Z,4.60
2018-12-14T06:42:10.998Z,4.70
2018-12-14T06:44:38.376Z,4.60
2018-12-14T06:47:04.631Z,4.60
2018-12-14T06:49:30.894Z,4.60
2018-12-14T06:51:57.341Z,4.60
2018-12-14T06:54:24.326Z,4.80
2018-12-14T06:56:50.576Z,4.80
2018-12-14T06:59:16.824Z,4.80
2018-12-14T07:01:43.809Z,4.80
2018-12-14T07:04:10.432Z,4.70
2018-12-14T07:06:36.666Z,4.70
2018-12-14T07:09:02.957Z,4.70
2018-12-14T07:11:29.192Z,4.70
2018-12-14T07:13:55.430Z,4.60
2018-12-14T07:16:22.415Z,4.60
2018-12-14T07:18:48.656Z,4.50
2018-12-14T07:21:14.908Z,4.70
2018-12-14T07:23:41.140Z,4.70
2018-12-14T07:26:07.628Z,4.70
2018-12-14T07:28:33.864Z,4.70
2018-12-14T07:31:00.152Z,4.70
2018-12-14T07:33:27.113Z,4.70
2018-12-14T07:35:53.352Z,4.70
2018-12-14T07:38:19.588Z,4.60
2018-12-14T07:40:45.837Z,4.60
2018-12-14T07:43:12.093Z,4.60
2018-12-14T07:45:39.111Z,4.40
2018-12-14T07:48:05.389Z,4.40
2018-12-14T07:50:32.944Z,4.40
2018-12-14T07:52:59.368Z,4.30
2018-12-14T07:55:26.377Z,4.50
2018-12-14T07:57:52.685Z,4.50
2018-12-14T08:00:18.930Z,4.50
2018-12-14T08:02:45.197Z,4.60
2018-12-14T08:05:12.175Z,4.80
2018-12-14T08:07:38.488Z,4.80
2018-12-14T08:10:04.774Z,4.90
2018-12-14T08:12:31.275Z,4.80
2018-12-14T08:14:57.690Z,4.80
2018-12-14T08:17:24.759Z,4.80
2018-12-14T08:19:51.022Z,4.70
2018-12-14T08:22:17.311Z,4.70
2018-12-14T08:24:43.600Z,4.70
2018-12-14T08:27:09.930Z,4.60
2018-12-14T08:29:36.952Z,4.60
2018-12-14T08:32:03.452Z,4.60
2018-12-14T08:34:29.876Z,4.60
2018-12-14T08:36:56.964Z,4.60
2018-12-14T08:39:23.236Z,4.50
2018-12-14T08:41:49.637Z,4.60
2018-12-14T08:44:15.938Z,4.50
2018-12-14T08:46:42.241Z,4.50
2018-12-14T08:49:08.711Z,4.60
2018-12-14T08:51:35.020Z,4.60
2018-12-14T08:54:02.083Z,4.70
2018-12-14T08:56:28.466Z,4.60
2018-12-14T08:58:54.867Z,4.70
2018-12-14T09:01:21.858Z,4.70
2018-12-14T09:03:48.158Z,4.60
2018-12-14T09:06:15.189Z,4.50
2018-12-14T09:08:42.224Z,4.40
2018-12-14T09:11:08.632Z,4.40
2018-12-14T09:13:35.234Z,4.50
2018-12-14T09:16:01.561Z,4.60
2018-12-14T09:18:27.858Z,4.70
2018-12-14T09:20:54.246Z,4.70
2018-12-14T09:23:20.513Z,4.60
2018-12-14T09:25:46.782Z,4.70
2018-12-14T09:28:13.049Z,4.80
2018-12-14T09:30:42.612Z,5.10
2018-12-14T09:33:05.961Z,4.80
2018-12-14T09:35:32.235Z,4.70
2018-12-14T09:37:58.667Z,4.70
2018-12-14T09:40:25.353Z,4.70
2018-12-14T09:42:52.365Z,4.80
2018-12-14T09:45:19.451Z,4.80
2018-12-14T09:47:45.738Z,4.70
2018-12-14T09:50:12.008Z,4.70
2018-12-14T09:52:38.325Z,4.60
2018-12-14T09:55:05.543Z,4.70
2018-12-14T09:57:31.818Z,4.70
2018-12-14T09:59:58.068Z,4.80
2018-12-14T10:02:24.684Z,4.80
2018-12-14T10:04:51.143Z,4.70
2018-12-14T10:07:17.524Z,4.70
2018-12-14T10:09:44.602Z,4.70
2018-12-14T10:12:10.898Z,4.70
2018-12-14T10:14:37.894Z,4.90
2018-12-14T10:17:04.281Z,4.80
2018-12-14T10:19:31.405Z,4.80
2018-12-14T10:21:57.664Z,4.80
2018-12-14T10:24:24.695Z,4.70
2018-12-14T10:26:50.918Z,4.70
2018-12-14T10:29:17.917Z,4.70
2018-12-14T10:31:44.296Z,4.70
2018-12-14T10:34:10.567Z,4.70
2018-12-14T10:36:37.111Z,4.70
2018-12-14T10:39:03.444Z,4.80
2018-12-14T10:41:30.396Z,4.80
2018-12-14T10:43:56.660Z,4.90
2018-12-14T10:46:22.955Z,4.90
2018-12-14T10:48:49.261Z,4.80
2018-12-14T10:51:15.527Z,4.90
2018-12-14T10:53:41.781Z,4.90
2018-12-14T10:56:08.111Z,4.90
2018-12-14T10:58:35.144Z,4.80
2018-12-14T11:01:07.521Z,4.80
2018-12-14T11:03:33.861Z,4.80
2018-12-14T11:06:00.121Z,4.80
2018-12-14T11:08:26.475Z,4.80
2018-12-14T11:10:52.750Z,4.80
2018-12-14T11:13:19.748Z,4.70
2018-12-14T11:15:46.003Z,4.70
2018-12-14T11:18:12.352Z,4.70
2018-12-14T11:20:39.398Z,4.90
2018-12-14T11:23:06.380Z,4.90
2018-12-14T11:25:32.703Z,4.90
2018-12-14T11:28:00.296Z,4.90
2018-12-14T11:30:26.598Z,4.90
2018-12-14T11:32:52.886Z,5.00
2018-12-14T11:35:19.341Z,5.00
2018-12-14T11:37:45.634Z,5.10
2018-12-14T11:40:11.968Z,4.90
2018-12-14T11:42:38.317Z,4.80
2018-12-14T11:45:05.365Z,4.80
2018-12-14T11:47:31.668Z,4.80
2018-12-14T11:49:57.977Z,4.70
2018-12-14T11:52:25.003Z,4.80
2018-12-14T11:54:51.364Z,4.80
2018-12-14T11:57:18.357Z,4.90
2018-12-14T11:59:45.811Z,4.90
2018-12-14T12:02:19.035Z,5.00
2018-12-14T12:04:53.422Z,5.00
2018-12-14T12:07:24.220Z,5.00
2018-12-14T12:09:52.848Z,5.00
2018-12-14T12:12:21.952Z,4.90
2018-12-14T12:14:49.539Z,5.00
2018-12-14T12:17:18.376Z,5.00
2018-12-14T12:19:44.887Z,5.00
2018-12-14T12:22:11.171Z,4.90
2018-12-14T12:24:37.487Z,4.90
2018-12-14T12:27:03.834Z,4.90
2018-12-14T12:29:31.317Z,4.90
2018-12-14T12:32:00.659Z,5.00
2018-12-14T12:34:27.100Z,4.90
2018-12-14T12:36:53.501Z,4.90
2018-12-14T12:39:19.817Z,4.90
2018-12-14T12:41:47.060Z,4.90
2018-12-14T12:44:14.319Z,4.90
2018-12-14T12:46:40.573Z,4.90
2018-12-14T12:49:06.809Z,4.90
2018-12-14T12:51:33.160Z,4.80
2018-12-14T12:53:59.404Z,4.80
2018-12-14T12:56:25.694Z,4.80
2018-12-14T12:58:51.948Z,4.80
2018-12-14T13:01:18.196Z,4.80
2018-12-14T13:03:45.168Z,4.80
2018-12-14T13:06:11.412Z,4.70
2018-12-14T13:08:37.628Z,4.70
2018-12-14T13:11:03.873Z,4.80
2018-12-14T13:13:30.121Z,4.80
2018-12-14T13:15:56.390Z,4.80
2018-12-14T13:18:22.621Z,4.80
2018-12-14T13:20:48.897Z,4.80
2018-12-14T13:23:15.151Z,4.80
2018-12-14T13:25:41.419Z,5.00
2018-12-14T13:28:08.662Z,4.80
2018-12-14T13:30:35.100Z,4.80
2018-12-14T13:33:01.395Z,4.70
2018-12-14T13:35:28.729Z,4.70
2018-12-14T13:37:55.104Z,4.70
2018-12-14T13:40:21.350Z,4.70
2018-12-14T13:42:48.216Z,4.70
2018-12-14T13:45:14.524Z,4.80
2018-12-14T13:47:40.805Z,4.90
2018-12-14T13:50:07.082Z,5.00
2018-12-14T13:52:33.325Z,5.20
2018-12-14T13:54:59.644Z,5.10
2018-12-14T13:57:26.031Z,5.00
2018-12-14T13:59:53.095Z,5.00
2018-12-14T14:02:19.562Z,5.00
2018-12-14T14:04:45.980Z,4.90
2018-12-14T14:07:12.240Z,4.80
2018-12-14T14:09:38.599Z,4.80
2018-12-14T14:12:05.630Z,4.80
2018-12-14T14:14:31.851Z,4.80
2018-12-14T14:16:58.100Z,4.80
2018-12-14T14:19:25.236Z,4.80
2018-12-14T14:21:52.156Z,4.80
2018-12-14T14:24:19.272Z,4.80
2018-12-14T14:26:45.607Z,4.70
2018-12-14T14:29:11.840Z,4.80
2018-12-14T14:31:38.169Z,4.70
2018-12-14T14:34:04.516Z,4.70
2018-12-14T14:36:30.772Z,4.70
2018-12-14T14:38:58.248Z,4.60
2018-12-14T14:41:24.475Z,4.60
2018-12-14T14:43:51.447Z,4.60
2018-12-14T14:46:18.013Z,4.60
2018-12-14T14:48:44.283Z,4.60
2018-12-14T14:51:10.624Z,4.60
2018-12-14T14:53:36.915Z,4.50
2018-12-14T14:56:03.192Z,4.60
2018-12-14T14:58:29.433Z,4.60
2018-12-14T15:00:55.721Z,4.70
2018-12-14T15:03:22.693Z,4.60
2018-12-14T15:05:49.085Z,4.60
2018-12-14T15:08:16.964Z,4.60
2018-12-14T15:10:43.211Z,4.50
2018-12-14T15:13:09.646Z,4.50
2018-12-14T15:15:35.952Z,4.60
2018-12-14T15:18:02.213Z,4.50
2018-12-14T15:20:28.538Z,4.50
2018-12-14T15:22:54.950Z,4.50
2018-12-14T15:25:21.953Z,4.40
2018-12-14T15:27:48.248Z,4.40
2018-12-14T15:30:15.381Z,4.50
2018-12-14T15:32:41.602Z,4.40
2018-12-14T15:35:07.887Z,4.40
2018-12-14T15:37:34.241Z,4.40
2018-12-14T15:40:01.266Z,4.40
2018-12-14T15:42:27.505Z,4.40
2018-12-14T15:44:53.892Z,4.40
2018-12-14T15:47:20.117Z,4.50
2018-12-14T15:49:46.395Z,4.50
2018-12-14T15:52:12.681Z,4.50
2018-12-14T15:54:38.967Z,4.50
2018-12-14T15:57:06.009Z,4.40
2018-12-14T15:59:32.274Z,4.40
2018-12-14T16:01:58.552Z,4.40
2018-12-14T16:04:24.776Z,4.50
2018-12-14T16:06:51.089Z,4.50
2018-12-14T16:09:17.359Z,4.60
2018-12-14T16:11:44.348Z,4.40
2018-12-14T16:14:10.678Z,4.40
2018-12-14T16:16:36.969Z,4.40
2018-12-14T16:19:04.096Z,4.30
2018-12-14T16:21:30.355Z,4.30
2018-12-14T16:23:56.636Z,4.30
2018-12-14T16:26:22.947Z,4.30
2018-12-14T16:28:49.478Z,4.30
2018-12-14T16:31:15.740Z,4.30
2018-12-14T16:33:42.809Z,4.30
2018-12-14T16:36:09.133Z,4.30
2018-12-14T16:38:36.134Z,4.30
2018-12-14T16:41:02.400Z,4.30
2018-12-14T16:43:29.373Z,4.40
2018-12-14T16:45:55.607Z,4.40
2018-12-14T16:48:21.840Z,4.40
2018-12-14T16:50:48.064Z,4.40
2018-12-14T16:53:14.328Z,4.40
2018-12-14T16:55:40.592Z,4.30
2018-12-14T16:58:07.604Z,4.30
2018-12-14T17:00:34.620Z,4.30
2018-12-14T17:03:00.855Z,4.30
2018-12-14T17:05:27.137Z,4.40
2018-12-14T17:07:53.463Z,4.40
2018-12-14T17:10:20.436Z,4.40
2018-12-14T17:12:46.705Z,4.40
2018-12-14T17:15:13.268Z,4.30
2018-12-14T17:17:39.524Z,4.30
2018-12-14T17:20:05.817Z,4.30
2018-12-14T17:22:32.099Z,4.20
2018-12-14T17:24:58.398Z,4.20
2018-12-14T17:27:25.741Z,4.20
2018-12-14T17:29:52.815Z,4.20
2018-12-14T17:32:19.083Z,4.20
2018-12-14T17:34:45.340Z,4.30
2018-12-14T17:37:12.360Z,4.20
2018-12-14T17:39:38.985Z,4.20
2018-12-14T17:42:05.278Z,4.20
2018-12-14T17:44:31.611Z,4.30
2018-12-14T17:46:57.933Z,4.30
2018-12-14T17:49:24.224Z,4.40
2018-12-14T17:51:51.508Z,4.50
2018-12-14T17:54:17.778Z,4.50
2018-12-14T17:56:44.091Z,4.50
2018-12-14T17:59:10.440Z,4.40
2018-12-14T18:01:36.740Z,4.50
2018-12-14T18:04:04.006Z,4.50
2018-12-14T18:16:05.583Z,4.40
2018-12-14T18:18:32.548Z,4.30
2018-12-14T18:20:58.804Z,4.40
2018-12-14T18:23:25.036Z,4.30
2018-12-14T18:25:51.272Z,4.30
2018-12-14T18:28:17.847Z,4.30
2018-12-14T18:30:43.861Z,4.40
2018-12-14T18:33:10.966Z,4.30
2018-12-14T18:35:37.187Z,4.30
2018-12-14T18:38:03.488Z,4.30
2018-12-14T18:40:29.732Z,4.30
2018-12-14T18:42:55.982Z,4.30
2018-12-14T18:45:22.967Z,4.20
2018-12-14T18:47:49.938Z,4.20
2018-12-14T18:50:16.191Z,4.20
2018-12-14T18:52:42.427Z,4.20
2018-12-14T18:55:08.675Z,4.20
2018-12-14T18:57:34.928Z,4.50
2018-12-14T19:00:01.980Z,4.30
2018-12-14T19:02:28.244Z,4.30
2018-12-14T19:04:54.482Z,4.30
2018-12-14T19:07:20.780Z,4.40
2018-12-14T19:09:48.043Z,4.40
2018-12-14T19:12:15.209Z,4.40
2018-12-14T19:14:41.507Z,4.20
2018-12-14T19:17:08.380Z,4.30
2018-12-14T19:19:34.697Z,4.30
2018-12-14T19:22:00.956Z,4.20
2018-12-14T19:24:27.188Z,4.20
2018-12-14T19:26:53.441Z,4.20
2018-12-14T19:29:21.336Z,4.10
2018-12-14T19:31:47.646Z,4.10
2018-12-14T19:34:13.976Z,4.10
2018-12-14T19:36:40.291Z,4.10
2018-12-14T19:39:07.337Z,4.10
2018-12-14T19:41:34.355Z,4.10
2018-12-14T19:44:00.610Z,4.10
2018-12-14T19:46:26.870Z,4.10
2018-12-14T19:48:53.180Z,4.20
2018-12-14T19:51:20.227Z,4.20
2018-12-14T19:53:46.473Z,4.20
2018-12-14T19:56:12.709Z,4.20
2018-12-14T19:58:38.994Z,4.40
2018-12-14T20:01:06.107Z,4.40
2018-12-14T20:03:32.483Z,4.40
2018-12-14T20:05:58.984Z,4.40
2018-12-14T20:08:25.275Z,4.40
2018-12-14T20:10:51.519Z,4.30
2018-12-14T20:13:17.770Z,4.30
2018-12-14T20:15:44.064Z,4.20
2018-12-14T20:18:10.410Z,4.10
2018-12-14T20:20:36.691Z,4.00
2018-12-14T20:23:03.732Z,4.10
2018-12-14T20:25:30.758Z,4.00
2018-12-14T20:27:57.053Z,4.10
2018-12-14T20:30:23.374Z,4.00
2018-12-14T20:32:49.928Z,4.00
2018-12-14T20:35:16.302Z,4.10
2018-12-14T20:37:42.635Z,4.10
2018-12-14T20:40:08.912Z,4.00
2018-12-14T20:42:35.479Z,4.10
2018-12-14T20:48:28.937Z,4.30
2018-12-14T20:54:16.407Z,4.20
2018-12-14T20:56:42.776Z,4.00
2018-12-14T20:59:09.160Z,4.20
2018-12-14T21:01:35.589Z,4.10
2018-12-14T21:04:02.654Z,4.00
2018-12-14T21:06:28.959Z,4.00
2018-12-14T21:08:56.232Z,4.10
2018-12-14T21:11:23.320Z,4.20
2018-12-14T21:13:49.579Z,4.10
2018-12-14T21:16:16.594Z,4.30
2018-12-14T21:18:43.750Z,4.20
2018-12-14T21:21:10.054Z,4.20
2018-12-14T21:23:36.324Z,4.20
2018-12-14T21:26:02.568Z,4.40
2018-12-14T21:28:28.831Z,4.30
2018-12-14T21:30:55.226Z,4.40
2018-12-14T21:33:21.488Z,4.30
2018-12-14T21:35:48.491Z,4.30
2018-12-14T21:38:15.494Z,4.10
2018-12-14T21:40:41.755Z,4.10
2018-12-14T21:43:08.781Z,4.00
2018-12-14T21:45:35.052Z,4.00
2018-12-14T21:48:02.070Z,4.00
2018-12-14T21:50:28.343Z,4.00
2018-12-14T21:52:54.675Z,3.90
2018-12-14T21:55:21.651Z,3.80
2018-12-14T21:57:47.945Z,3.90
2018-12-14T22:00:14.276Z,3.90
2018-12-14T22:02:40.642Z,4.10
2018-12-14T22:05:06.943Z,4.10
2018-12-14T22:07:34.343Z,4.20
2018-12-14T22:10:00.697Z,4.20
2018-12-14T22:12:27.015Z,4.20
2018-12-14T22:14:53.408Z,4.10
2018-12-14T22:17:19.762Z,4.20
2018-12-14T22:19:46.615Z,4.10
2018-12-14T22:22:12.961Z,4.10
2018-12-14T22:24:39.218Z,4.00
2018-12-14T22:27:05.490Z,4.00
2018-12-14T22:29:32.479Z,4.00
2018-12-14T22:31:59.525Z,3.90
2018-12-14T22:34:26.568Z,3.90
2018-12-14T22:36:53.600Z,4.20
2018-12-14T22:39:19.949Z,4.20
2018-12-14T22:41:46.251Z,4.30
2018-12-14T22:44:13.289Z,4.30
2018-12-14T22:46:45.454Z,4.00
2018-12-14T22:49:06.233Z,4.30
2018-12-14T22:51:32.549Z,4.30
2018-12-14T22:53:58.838Z,4.30
2018-12-14T22:56:25.963Z,4.30
2018-12-14T22:58:52.223Z,4.20
2018-12-14T23:01:19.252Z,4.30
2018-12-14T23:03:46.755Z,4.30
2018-12-14T23:06:13.018Z,4.30
2018-12-14T23:08:39.267Z,4.30
2018-12-14T23:11:05.516Z,4.30
2018-12-14T23:13:32.515Z,4.10
2018-12-14T23:15:58.855Z,4.10
2018-12-14T23:18:25.932Z,4.10
2018-12-14T23:20:52.916Z,4.10
2018-12-14T23:23:19.184Z,4.00
2018-12-14T23:25:45.455Z,4.00
2018-12-14T23:28:12.608Z,3.90
2018-12-14T23:30:38.986Z,3.80
2018-12-14T23:33:05.263Z,3.90
2018-12-14T23:35:31.484Z,4.00
2018-12-14T23:37:57.737Z,3.90
2018-12-14T23:40:24.983Z,4.00
2018-12-14T23:42:51.240Z,4.10
2018-12-14T23:45:17.482Z,4.30
2018-12-14T23:47:43.748Z,4.20
2018-12-14T23:50:10.026Z,4.10
2018-12-14T23:52:36.280Z,4.10
2018-12-14T23:55:03.318Z,4.10
2018-12-14T23:57:29.568Z,4.10
2018-12-14T23:59:56.589Z,4.20
